Date,TemperatureHighF,TemperatureAvgF,TemperatureLowF,DewpointHighF,DewpointAvgF,DewpointLowF,HumidityHigh,HumidityAvg,HumidityLow,PressureMaxIn,PressureMinIn,WindSpeedMaxMPH,WindSpeedAvgMPH,GustSpeedMaxMPH,PrecipitationSumIn
2013-2-1,23.0,16.0,11.0,21.0,13.5,8.0,94,90,82,30.19,29.70,9,4,28,0.08
2013-2-2,23.0,15.7,5.0,23.0,13.7,3.0,98,92,85,30.18,29.85,5,1,15,0.36
2013-2-3,30.0,24.9,22.0,28.0,23.7,22.0,98,95,91,29.85,29.70,4,0,13,0.29
2013-2-4,30.0,27.4,24.0,30.0,25.3,21.0,99,92,77,29.89,29.75,3,0,16,0.21
2013-2-5,35.0,31.5,30.0,35.0,31.0,29.0,100,98,92,29.85,29.72,7,1,21,0.16
2013-2-6,32.0,27.7,18.0,29.0,26.0,16.0,98,93,87,30.24,29.84,6,2,20,0.08
2013-2-7,34.0,25.9,15.0,31.0,24.0,13.0,98,92,89,30.25,30.01,7,2,20,0.00
2013-2-8,36.0,31.1,25.0,36.0,30.5,24.0,100,98,92,30.01,29.73,9,4,27,0.08
2013-2-9,32.0,24.4,18.0,27.0,21.9,15.0,96,90,79,30.29,29.99,9,2,26,0.02
2013-2-10,42.0,26.3,10.0,30.0,20.6,8.0,93,80,62,30.28,30.01,6,1,17,0.00
2013-2-11,57.0,43.4,34.0,50.0,39.0,29.0,100,86,58,30.01,29.66,7,3,26,0.00
2013-2-12,45.0,37.2,31.0,37.0,32.2,28.0,91,82,71,29.97,29.83,9,4,29,0.00
2013-2-13,40.0,32.8,27.0,34.0,30.2,25.0,99,91,73,29.88,29.60,4,0,11,0.17
2013-2-14,41.0,33.3,27.0,37.0,30.9,26.0,98,91,83,29.89,29.74,6,1,15,0.00
2013-2-15,44.0,35.8,32.0,37.0,33.3,30.0,98,91,75,29.97,29.86,6,1,19,0.01
2013-2-16,31.0,26.5,21.0,30.0,23.6,19.0,95,88,78,29.94,29.78,6,1,16,0.03
2013-2-17,24.0,18.7,14.0,21.0,16.4,10.0,95,90,82,30.11,29.76,9,3,26,0.42
2013-2-18,41.0,23.1,7.0,32.0,17.2,5.0,91,79,63,30.19,29.93,5,0,14,0.00
2013-2-19,41.0,35.6,25.0,40.0,32.6,23.0,98,90,71,29.93,29.59,8,4,30,0.18
2013-2-20,25.0,20.1,18.0,23.0,17.5,15.0,94,90,83,30.06,29.79,9,6,33,0.09
2013-2-21,25.0,19.5,16.0,22.0,17.2,14.0,94,91,87,30.24,30.03,8,3,20,0.07
2013-2-22,28.0,25.0,18.0,28.0,23.5,16.0,99,94,85,30.19,30.01,9,2,20,0.03
2013-2-23,48.0,35.9,28.0,45.0,35.1,28.0,100,97,87,30.01,29.78,2,0,10,0.00
2013-2-24,35.0,30.4,26.0,35.0,28.7,24.0,99,94,90,30.04,29.78,7,3,21,0.04
2013-2-25,40.0,31.2,24.0,32.0,27.0,23.0,96,84,68,30.14,30.03,4,0,14,0.00
2013-2-26,35.0,33.0,31.0,35.0,30.1,26.0,100,89,78,30.06,29.59,9,3,25,0.22
2013-2-27,40.0,35.5,33.0,38.0,35.3,33.0,100,99,94,29.65,29.53,7,1,18,0.15
2013-2-28,34.0,32.5,31.0,34.0,31.5,30.0,99,96,93,29.70,29.56,7,2,19,0.11